sensor_id;sensor_type;location;lat;lon;timestamp;temperature;humidity
36856;DHT22;22788;51.434;6.786;2023-05-31T00:01:24;17.50;99.90
36856;DHT22;22788;51.434;6.786;2023-05-31T00:03:49;17.50;99.90
36856;DHT22;22788;51.434;6.786;2023-05-31T00:06:16;17.50;99.90
36856;DHT22;22788;51.434;6.786;2023-05-31T00:08:42;17.50;99.90
36856;DHT22;22788;51.434;6.786;2023-05-31T00:11:08;17.50;99.90
36856;DHT22;22788;51.434;6.786;2023-05-31T00:13:33;17.40;99.90
36856;DHT22;22788;51.434;6.786;2023-05-31T00:15:59;17.40;99.90
36856;DHT22;22788;51.434;6.786;2023-05-31T00:18:25;17.30;99.90
36856;DHT22;22788;51.434;6.786;2023-05-31T00:20:51;17.40;99.90
36856;DHT22;22788;51.434;6.786;2023-05-31T00:23:17;17.40;99.90
36856;DHT22;22788;51.434;6.786;2023-05-31T00:25:43;17.30;99.90
36856;DHT22;22788;51.434;6.786;2023-05-31T00:28:09;17.40;99.90
36856;DHT22;22788;51.434;6.786;2023-05-31T00:30:34;17.40;99.90
36856;DHT22;22788;51.434;6.786;2023-05-31T00:33:00;17.30;99.90
36856;DHT22;22788;51.434;6.786;2023-05-31T00:35:25;17.30;99.90
36856;DHT22;22788;51.434;6.786;2023-05-31T00:37:51;17.30;99.90
36856;DHT22;22788;51.434;6.786;2023-05-31T00:40:18;17.30;99.90
36856;DHT22;22788;51.434;6.786;2023-05-31T00:42:44;17.30;99.90
36856;DHT22;22788;51.434;6.786;2023-05-31T00:45:10;17.30;99.90
36856;DHT22;22788;51.434;6.786;2023-05-31T00:47:36;17.30;99.90
36856;DHT22;22788;51.434;6.786;2023-05-31T00:50:02;17.30;99.90
36856;DHT22;22788;51.434;6.786;2023-05-31T00:52:28;17.30;99.90
36856;DHT22;22788;51.434;6.786;2023-05-31T00:54:55;17.30;99.90
36856;DHT22;22788;51.434;6.786;2023-05-31T00:57:22;17.20;99.90
36856;DHT22;22788;51.434;6.786;2023-05-31T00:59:48;17.20;99.90
36856;DHT22;22788;51.434;6.786;2023-05-31T01:02:14;17.20;99.90
36856;DHT22;22788;51.434;6.786;2023-05-31T01:04:41;17.20;99.90
36856;DHT22;22788;51.434;6.786;2023-05-31T01:07:07;17.20;99.90
36856;DHT22;22788;51.434;6.786;2023-05-31T01:09:33;17.20;99.90
36856;DHT22;22788;51.434;6.786;2023-05-31T01:12:13;17.10;99.90
36856;DHT22;22788;51.434;6.786;2023-05-31T01:14:55;17.20;99.90
36856;DHT22;22788;51.434;6.786;2023-05-31T01:17:25;17.20;99.90
36856;DHT22;22788;51.434;6.786;2023-05-31T01:19:54;17.20;99.90
36856;DHT22;22788;51.434;6.786;2023-05-31T01:22:29;17.20;99.90
36856;DHT22;22788;51.434;6.786;2023-05-31T01:25:10;17.10;99.90
36856;DHT22;22788;51.434;6.786;2023-05-31T01:27:41;17.10;99.90
36856;DHT22;22788;51.434;6.786;2023-05-31T01:30:09;17.10;99.90
36856;DHT22;22788;51.434;6.786;2023-05-31T01:32:36;17.10;99.90
36856;DHT22;22788;51.434;6.786;2023-05-31T01:35:02;17.10;99.90
36856;DHT22;22788;51.434;6.786;2023-05-31T01:37:28;17.10;99.90
36856;DHT22;22788;51.434;6.786;2023-05-31T01:39:54;17.10;99.90
36856;DHT22;22788;51.434;6.786;2023-05-31T01:42:20;17.10;99.90
36856;DHT22;22788;51.434;6.786;2023-05-31T01:44:48;17.10;99.90
36856;DHT22;22788;51.434;6.786;2023-05-31T01:47:15;17.10;99.90
36856;DHT22;22788;51.434;6.786;2023-05-31T01:49:41;17.10;99.90
36856;DHT22;22788;51.434;6.786;2023-05-31T01:52:17;17.10;99.90
36856;DHT22;22788;51.434;6.786;2023-05-31T01:54:44;17.00;99.90
36856;DHT22;22788;51.434;6.786;2023-05-31T01:57:10;17.00;99.90
36856;DHT22;22788;51.434;6.786;2023-05-31T01:59:37;17.00;99.90
36856;DHT22;22788;51.434;6.786;2023-05-31T02:02:05;16.90;99.90
36856;DHT22;22788;51.434;6.786;2023-05-31T02:04:31;16.90;99.90
36856;DHT22;22788;51.434;6.786;2023-05-31T02:06:57;16.90;99.90
36856;DHT22;22788;51.434;6.786;2023-05-31T02:09:24;16.90;99.90
36856;DHT22;22788;51.434;6.786;2023-05-31T02:11:49;16.90;99.90
36856;DHT22;22788;51.434;6.786;2023-05-31T02:14:15;16.90;99.90
36856;DHT22;22788;51.434;6.786;2023-05-31T02:16:41;16.90;99.90
36856;DHT22;22788;51.434;6.786;2023-05-31T02:19:08;16.90;99.90
36856;DHT22;22788;51.434;6.786;2023-05-31T02:21:33;16.90;99.90
36856;DHT22;22788;51.434;6.786;2023-05-31T02:23:59;16.90;99.90
36856;DHT22;22788;51.434;6.786;2023-05-31T02:26:25;16.90;99.90
36856;DHT22;22788;51.434;6.786;2023-05-31T02:28:50;16.80;99.90
36856;DHT22;22788;51.434;6.786;2023-05-31T02:31:16;16.90;99.90
36856;DHT22;22788;51.434;6.786;2023-05-31T02:33:41;16.90;99.90
36856;DHT22;22788;51.434;6.786;2023-05-31T02:36:09;16.90;99.90
36856;DHT22;22788;51.434;6.786;2023-05-31T02:38:34;16.90;99.90
36856;DHT22;22788;51.434;6.786;2023-05-31T02:41:00;16.90;99.90
36856;DHT22;22788;51.434;6.786;2023-05-31T02:43:26;16.90;99.90
36856;DHT22;22788;51.434;6.786;2023-05-31T02:45:51;16.80;99.90
36856;DHT22;22788;51.434;6.786;2023-05-31T02:48:17;16.80;99.90
36856;DHT22;22788;51.434;6.786;2023-05-31T02:50:42;16.80;99.90
36856;DHT22;22788;51.434;6.786;2023-05-31T02:53:09;16.80;99.90
36856;DHT22;22788;51.434;6.786;2023-05-31T02:55:35;16.80;99.90
36856;DHT22;22788;51.434;6.786;2023-05-31T02:58:01;16.80;99.90
36856;DHT22;22788;51.434;6.786;2023-05-31T03:00:26;16.80;99.90
36856;DHT22;22788;51.434;6.786;2023-05-31T03:02:52;16.80;99.90
36856;DHT22;22788;51.434;6.786;2023-05-31T03:05:17;16.80;99.90
36856;DHT22;22788;51.434;6.786;2023-05-31T03:07:43;16.80;99.90
36856;DHT22;22788;51.434;6.786;2023-05-31T03:10:10;16.70;99.90
36856;DHT22;22788;51.434;6.786;2023-05-31T03:12:37;16.70;99.90
36856;DHT22;22788;51.434;6.786;2023-05-31T03:15:03;16.70;99.90
36856;DHT22;22788;51.434;6.786;2023-05-31T03:17:29;16.70;99.90
36856;DHT22;22788;51.434;6.786;2023-05-31T03:19:54;16.70;99.90
36856;DHT22;22788;51.434;6.786;2023-05-31T03:22:20;16.70;99.90
36856;DHT22;22788;51.434;6.786;2023-05-31T03:24:45;16.70;99.90
36856;DHT22;22788;51.434;6.786;2023-05-31T03:27:12;16.70;99.90
36856;DHT22;22788;51.434;6.786;2023-05-31T03:29:41;16.70;99.90
36856;DHT22;22788;51.434;6.786;2023-05-31T03:32:06;16.70;99.90
36856;DHT22;22788;51.434;6.786;2023-05-31T03:34:32;16.70;99.90
36856;DHT22;22788;51.434;6.786;2023-05-31T03:36:58;16.70;99.90
36856;DHT22;22788;51.434;6.786;2023-05-31T03:39:23;16.60;99.90
36856;DHT22;22788;51.434;6.786;2023-05-31T03:41:49;16.60;99.90
36856;DHT22;22788;51.434;6.786;2023-05-31T03:44:16;16.60;99.90
36856;DHT22;22788;51.434;6.786;2023-05-31T03:46:41;16.60;99.90
36856;DHT22;22788;51.434;6.786;2023-05-31T03:49:07;16.50;99.90
36856;DHT22;22788;51.434;6.786;2023-05-31T03:51:33;16.50;99.90
36856;DHT22;22788;51.434;6.786;2023-05-31T03:53:58;16.50;99.90
36856;DHT22;22788;51.434;6.786;2023-05-31T03:56:24;16.50;99.90
36856;DHT22;22788;51.434;6.786;2023-05-31T03:58:50;16.50;99.90
36856;DHT22;22788;51.434;6.786;2023-05-31T04:01:17;16.40;99.90
36856;DHT22;22788;51.434;6.786;2023-05-31T04:03:43;16.50;99.90
36856;DHT22;22788;51.434;6.786;2023-05-31T04:06:08;16.50;99.90
36856;DHT22;22788;51.434;6.786;2023-05-31T04:08:34;16.50;99.90
36856;DHT22;22788;51.434;6.786;2023-05-31T04:10:59;16.50;99.90
36856;DHT22;22788;51.434;6.786;2023-05-31T04:13:25;16.50;99.90
36856;DHT22;22788;51.434;6.786;2023-05-31T04:15:51;16.50;99.90
36856;DHT22;22788;51.434;6.786;2023-05-31T04:18:18;16.40;99.90
36856;DHT22;22788;51.434;6.786;2023-05-31T04:20:43;16.50;99.90
36856;DHT22;22788;51.434;6.786;2023-05-31T04:23:09;16.50;99.90
36856;DHT22;22788;51.434;6.786;2023-05-31T04:25:34;16.50;99.90
36856;DHT22;22788;51.434;6.786;2023-05-31T04:28:00;16.40;99.90
36856;DHT22;22788;51.434;6.786;2023-05-31T04:30:25;16.50;99.90
36856;DHT22;22788;51.434;6.786;2023-05-31T04:32:51;16.40;99.90
36856;DHT22;22788;51.434;6.786;2023-05-31T04:35:18;16.40;99.90
36856;DHT22;22788;51.434;6.786;2023-05-31T04:37:44;16.50;99.90
36856;DHT22;22788;51.434;6.786;2023-05-31T04:40:10;16.40;99.90
36856;DHT22;22788;51.434;6.786;2023-05-31T04:42:36;16.40;99.90
36856;DHT22;22788;51.434;6.786;2023-05-31T04:45:02;16.40;99.90
36856;DHT22;22788;51.434;6.786;2023-05-31T04:47:28;16.30;99.90
36856;DHT22;22788;51.434;6.786;2023-05-31T04:49:54;16.40;99.90
36856;DHT22;22788;51.434;6.786;2023-05-31T04:52:21;16.30;99.90
36856;DHT22;22788;51.434;6.786;2023-05-31T04:54:46;16.30;99.90
36856;DHT22;22788;51.434;6.786;2023-05-31T04:57:12;16.30;99.90
36856;DHT22;22788;51.434;6.786;2023-05-31T04:59:37;16.30;99.90
36856;DHT22;22788;51.434;6.786;2023-05-31T05:02:03;16.40;99.90
36856;DHT22;22788;51.434;6.786;2023-05-31T05:04:29;16.40;99.90
36856;DHT22;22788;51.434;6.786;2023-05-31T05:06:55;16.40;99.90
36856;DHT22;22788;51.434;6.786;2023-05-31T05:09:22;16.40;99.90
36856;DHT22;22788;51.434;6.786;2023-05-31T05:11:48;16.40;99.90
36856;DHT22;22788;51.434;6.786;2023-05-31T05:14:13;16.40;99.90
36856;DHT22;22788;51.434;6.786;2023-05-31T05:16:39;16.40;99.90
36856;DHT22;22788;51.434;6.786;2023-05-31T05:19:04;16.30;99.90
36856;DHT22;22788;51.434;6.786;2023-05-31T05:21:30;16.40;99.90
36856;DHT22;22788;51.434;6.786;2023-05-31T05:23:56;16.30;99.90
36856;DHT22;22788;51.434;6.786;2023-05-31T05:26:23;16.30;99.90
36856;DHT22;22788;51.434;6.786;2023-05-31T05:28:48;16.40;99.90
36856;DHT22;22788;51.434;6.786;2023-05-31T05:31:14;16.40;99.90
36856;DHT22;22788;51.434;6.786;2023-05-31T05:33:39;16.30;99.90
36856;DHT22;22788;51.434;6.786;2023-05-31T05:36:05;16.40;99.90
36856;DHT22;22788;51.434;6.786;2023-05-31T05:38:31;16.40;99.90
36856;DHT22;22788;51.434;6.786;2023-05-31T05:40:57;16.40;99.90
36856;DHT22;22788;51.434;6.786;2023-05-31T05:43:24;16.40;99.90
36856;DHT22;22788;51.434;6.786;2023-05-31T05:45:49;16.50;99.90
36856;DHT22;22788;51.434;6.786;2023-05-31T05:48:15;16.40;99.90
36856;DHT22;22788;51.434;6.786;2023-05-31T05:50:40;16.40;99.90
36856;DHT22;22788;51.434;6.786;2023-05-31T05:53:06;16.40;99.90
36856;DHT22;22788;51.434;6.786;2023-05-31T05:55:33;16.40;99.90
36856;DHT22;22788;51.434;6.786;2023-05-31T05:57:59;16.50;99.90
36856;DHT22;22788;51.434;6.786;2023-05-31T06:00:26;16.50;99.90
36856;DHT22;22788;51.434;6.786;2023-05-31T06:02:51;16.50;99.90
36856;DHT22;22788;51.434;6.786;2023-05-31T06:05:17;16.50;99.90
36856;DHT22;22788;51.434;6.786;2023-05-31T06:07:43;16.40;99.90
36856;DHT22;22788;51.434;6.786;2023-05-31T06:10:09;16.40;99.90
36856;DHT22;22788;51.434;6.786;2023-05-31T06:12:35;16.40;99.90
36856;DHT22;22788;51.434;6.786;2023-05-31T06:15:00;16.60;99.90
36856;DHT22;22788;51.434;6.786;2023-05-31T06:17:27;16.50;99.90
36856;DHT22;22788;51.434;6.786;2023-05-31T06:19:53;16.60;99.90
36856;DHT22;22788;51.434;6.786;2023-05-31T06:22:18;16.50;99.90
36856;DHT22;22788;51.434;6.786;2023-05-31T06:24:44;16.50;99.90
36856;DHT22;22788;51.434;6.786;2023-05-31T06:27:10;16.50;99.90
36856;DHT22;22788;51.434;6.786;2023-05-31T06:29:35;16.40;99.90
36856;DHT22;22788;51.434;6.786;2023-05-31T06:32:01;16.50;99.90
36856;DHT22;22788;51.434;6.786;2023-05-31T06:34:28;16.60;99.90
36856;DHT22;22788;51.434;6.786;2023-05-31T06:36:53;16.60;99.90
36856;DHT22;22788;51.434;6.786;2023-05-31T06:39:19;16.60;99.90
36856;DHT22;22788;51.434;6.786;2023-05-31T06:41:44;16.60;99.90
36856;DHT22;22788;51.434;6.786;2023-05-31T06:44:10;16.50;99.90
36856;DHT22;22788;51.434;6.786;2023-05-31T06:46:36;16.50;99.90
36856;DHT22;22788;51.434;6.786;2023-05-31T06:49:01;16.50;99.90
36856;DHT22;22788;51.434;6.786;2023-05-31T06:51:28;16.60;99.90
36856;DHT22;22788;51.434;6.786;2023-05-31T06:53:54;16.50;99.90
36856;DHT22;22788;51.434;6.786;2023-05-31T06:56:20;16.50;99.90
36856;DHT22;22788;51.434;6.786;2023-05-31T06:58:45;16.50;99.90
36856;DHT22;22788;51.434;6.786;2023-05-31T07:01:11;16.60;99.90
36856;DHT22;22788;51.434;6.786;2023-05-31T07:03:37;16.50;99.90
36856;DHT22;22788;51.434;6.786;2023-05-31T07:06:03;16.60;99.90
36856;DHT22;22788;51.434;6.786;2023-05-31T07:08:30;16.60;99.90
36856;DHT22;22788;51.434;6.786;2023-05-31T07:10:55;16.70;99.90
36856;DHT22;22788;51.434;6.786;2023-05-31T07:13:21;16.70;99.90
36856;DHT22;22788;51.434;6.786;2023-05-31T07:15:46;16.70;99.90
36856;DHT22;22788;51.434;6.786;2023-05-31T07:18:12;16.80;99.90
36856;DHT22;22788;51.434;6.786;2023-05-31T07:20:38;16.80;99.90
36856;DHT22;22788;51.434;6.786;2023-05-31T07:23:03;16.80;99.90
36856;DHT22;22788;51.434;6.786;2023-05-31T07:25:30;16.70;99.90
36856;DHT22;22788;51.434;6.786;2023-05-31T07:27:56;16.80;99.90
36856;DHT22;22788;51.434;6.786;2023-05-31T07:30:21;16.80;99.90
36856;DHT22;22788;51.434;6.786;2023-05-31T07:32:47;16.80;99.90
36856;DHT22;22788;51.434;6.786;2023-05-31T07:35:13;16.70;99.90
36856;DHT22;22788;51.434;6.786;2023-05-31T07:37:38;16.80;99.90
36856;DHT22;22788;51.434;6.786;2023-05-31T07:40:05;16.80;99.90
36856;DHT22;22788;51.434;6.786;2023-05-31T07:42:32;16.90;99.90
36856;DHT22;22788;51.434;6.786;2023-05-31T07:44:58;16.90;99.90
36856;DHT22;22788;51.434;6.786;2023-05-31T07:47:24;16.90;99.90
36856;DHT22;22788;51.434;6.786;2023-05-31T07:49:49;16.90;99.90
36856;DHT22;22788;51.434;6.786;2023-05-31T07:52:15;16.90;99.90
36856;DHT22;22788;51.434;6.786;2023-05-31T07:54:40;17.00;99.90
36856;DHT22;22788;51.434;6.786;2023-05-31T07:57:06;16.90;99.90
36856;DHT22;22788;51.434;6.786;2023-05-31T07:59:33;17.00;99.90
36856;DHT22;22788;51.434;6.786;2023-05-31T08:01:59;17.00;99.90
36856;DHT22;22788;51.434;6.786;2023-05-31T08:04:24;16.90;99.90
36856;DHT22;22788;51.434;6.786;2023-05-31T08:06:50;16.90;99.90
36856;DHT22;22788;51.434;6.786;2023-05-31T08:09:16;17.00;99.90
36856;DHT22;22788;51.434;6.786;2023-05-31T08:11:41;17.10;99.90
36856;DHT22;22788;51.434;6.786;2023-05-31T08:14:07;17.20;99.90
36856;DHT22;22788;51.434;6.786;2023-05-31T08:16:34;17.30;99.90
36856;DHT22;22788;51.434;6.786;2023-05-31T08:19:00;17.40;99.90
36856;DHT22;22788;51.434;6.786;2023-05-31T08:21:25;17.40;99.90
36856;DHT22;22788;51.434;6.786;2023-05-31T08:23:51;17.40;99.90
36856;DHT22;22788;51.434;6.786;2023-05-31T08:26:16;17.40;99.90
36856;DHT22;22788;51.434;6.786;2023-05-31T08:28:42;17.40;99.90
36856;DHT22;22788;51.434;6.786;2023-05-31T08:31:08;17.30;99.90
36856;DHT22;22788;51.434;6.786;2023-05-31T08:33:35;17.30;99.90
36856;DHT22;22788;51.434;6.786;2023-05-31T08:36:01;17.30;99.90
36856;DHT22;22788;51.434;6.786;2023-05-31T08:38:27;17.40;99.90
36856;DHT22;22788;51.434;6.786;2023-05-31T08:40:53;17.50;99.90
36856;DHT22;22788;51.434;6.786;2023-05-31T08:43:19;17.50;99.90
36856;DHT22;22788;51.434;6.786;2023-05-31T08:45:47;17.40;99.90
36856;DHT22;22788;51.434;6.786;2023-05-31T08:48:17;17.40;99.90
36856;DHT22;22788;51.434;6.786;2023-05-31T08:50:45;17.40;99.90
36856;DHT22;22788;51.434;6.786;2023-05-31T08:53:11;17.60;99.90
36856;DHT22;22788;51.434;6.786;2023-05-31T08:55:37;17.70;99.90
36856;DHT22;22788;51.434;6.786;2023-05-31T08:58:04;17.80;99.90
36856;DHT22;22788;51.434;6.786;2023-05-31T09:00:30;17.70;99.90
36856;DHT22;22788;51.434;6.786;2023-05-31T09:02:57;17.70;99.90
36856;DHT22;22788;51.434;6.786;2023-05-31T09:05:23;17.50;99.90
36856;DHT22;22788;51.434;6.786;2023-05-31T09:07:50;17.70;99.90
36856;DHT22;22788;51.434;6.786;2023-05-31T09:10:16;17.60;99.90
36856;DHT22;22788;51.434;6.786;2023-05-31T09:12:42;17.70;99.90
36856;DHT22;22788;51.434;6.786;2023-05-31T09:15:08;17.80;99.90
36856;DHT22;22788;51.434;6.786;2023-05-31T09:17:36;17.80;99.90
36856;DHT22;22788;51.434;6.786;2023-05-31T09:20:02;17.90;99.90
36856;DHT22;22788;51.434;6.786;2023-05-31T09:22:27;17.90;99.90
36856;DHT22;22788;51.434;6.786;2023-05-31T09:24:57;18.10;99.90
36856;DHT22;22788;51.434;6.786;2023-05-31T09:27:23;18.30;99.90
36856;DHT22;22788;51.434;6.786;2023-05-31T09:29:51;18.20;99.90
36856;DHT22;22788;51.434;6.786;2023-05-31T09:32:17;18.50;99.90
36856;DHT22;22788;51.434;6.786;2023-05-31T09:34:43;18.40;99.90
36856;DHT22;22788;51.434;6.786;2023-05-31T09:37:09;18.40;99.90
36856;DHT22;22788;51.434;6.786;2023-05-31T09:39:34;18.20;99.90
36856;DHT22;22788;51.434;6.786;2023-05-31T09:42:11;18.40;99.90
36856;DHT22;22788;51.434;6.786;2023-05-31T09:44:37;18.30;99.90
36856;DHT22;22788;51.434;6.786;2023-05-31T09:47:07;18.20;99.90
36856;DHT22;22788;51.434;6.786;2023-05-31T09:49:33;18.20;99.90
36856;DHT22;22788;51.434;6.786;2023-05-31T09:51:59;18.20;99.90
36856;DHT22;22788;51.434;6.786;2023-05-31T09:54:25;18.20;99.90
36856;DHT22;22788;51.434;6.786;2023-05-31T09:56:51;18.30;99.90
36856;DHT22;22788;51.434;6.786;2023-05-31T09:59:18;18.40;99.90
36856;DHT22;22788;51.434;6.786;2023-05-31T10:01:44;18.60;99.70
36856;DHT22;22788;51.434;6.786;2023-05-31T10:04:11;18.50;99.90
36856;DHT22;22788;51.434;6.786;2023-05-31T10:06:37;18.60;99.90
36856;DHT22;22788;51.434;6.786;2023-05-31T10:09:03;18.60;99.90
36856;DHT22;22788;51.434;6.786;2023-05-31T10:11:32;18.50;99.90
36856;DHT22;22788;51.434;6.786;2023-05-31T10:14:01;18.50;97.90
36856;DHT22;22788;51.434;6.786;2023-05-31T10:16:35;19.00;97.80
36856;DHT22;22788;51.434;6.786;2023-05-31T10:19:06;19.00;99.90
36856;DHT22;22788;51.434;6.786;2023-05-31T10:21:36;19.10;96.80
36856;DHT22;22788;51.434;6.786;2023-05-31T10:24:07;19.20;96.60
36856;DHT22;22788;51.434;6.786;2023-05-31T10:26:37;19.10;99.30
36856;DHT22;22788;51.434;6.786;2023-05-31T10:29:08;19.30;98.60
36856;DHT22;22788;51.434;6.786;2023-05-31T10:31:41;19.40;95.80
36856;DHT22;22788;51.434;6.786;2023-05-31T10:34:15;19.60;97.60
36856;DHT22;22788;51.434;6.786;2023-05-31T10:36:41;19.80;95.00
36856;DHT22;22788;51.434;6.786;2023-05-31T10:39:12;19.60;97.80
36856;DHT22;22788;51.434;6.786;2023-05-31T10:41:42;19.40;97.90
36856;DHT22;22788;51.434;6.786;2023-05-31T10:44:12;19.30;97.40
36856;DHT22;22788;51.434;6.786;2023-05-31T10:46:44;19.40;96.30
36856;DHT22;22788;51.434;6.786;2023-05-31T10:49:13;19.60;95.70
36856;DHT22;22788;51.434;6.786;2023-05-31T10:51:39;19.70;96.40
36856;DHT22;22788;51.434;6.786;2023-05-31T10:54:05;19.60;94.80
36856;DHT22;22788;51.434;6.786;2023-05-31T10:56:30;19.90;94.80
36856;DHT22;22788;51.434;6.786;2023-05-31T10:58:56;20.00;96.60
36856;DHT22;22788;51.434;6.786;2023-05-31T11:01:22;19.90;93.50
36856;DHT22;22788;51.434;6.786;2023-05-31T11:03:50;19.70;97.40
36856;DHT22;22788;51.434;6.786;2023-05-31T11:06:17;19.70;92.90
36856;DHT22;22788;51.434;6.786;2023-05-31T11:08:57;19.90;97.00
36856;DHT22;22788;51.434;6.786;2023-05-31T11:11:27;19.60;97.60
36856;DHT22;22788;51.434;6.786;2023-05-31T11:14:01;19.70;97.20
36856;DHT22;22788;51.434;6.786;2023-05-31T11:16:27;20.00;97.00
36856;DHT22;22788;51.434;6.786;2023-05-31T11:19:04;19.80;97.70
36856;DHT22;22788;51.434;6.786;2023-05-31T11:21:46;19.70;98.00
36856;DHT22;22788;51.434;6.786;2023-05-31T11:24:25;19.80;90.50
36856;DHT22;22788;51.434;6.786;2023-05-31T11:26:52;20.00;96.20
36856;DHT22;22788;51.434;6.786;2023-05-31T11:29:17;19.90;97.30
36856;DHT22;22788;51.434;6.786;2023-05-31T11:31:55;20.00;96.10
36856;DHT22;22788;51.434;6.786;2023-05-31T11:34:23;20.40;92.70
36856;DHT22;22788;51.434;6.786;2023-05-31T11:36:49;20.40;95.70
36856;DHT22;22788;51.434;6.786;2023-05-31T11:39:16;20.20;96.40
36856;DHT22;22788;51.434;6.786;2023-05-31T11:41:41;20.00;97.00
36856;DHT22;22788;51.434;6.786;2023-05-31T11:44:10;19.80;97.30
36856;DHT22;22788;51.434;6.786;2023-05-31T11:46:39;20.30;96.20
36856;DHT22;22788;51.434;6.786;2023-05-31T11:49:05;20.50;92.20
36856;DHT22;22788;51.434;6.786;2023-05-31T11:51:32;20.90;90.90
36856;DHT22;22788;51.434;6.786;2023-05-31T11:53:58;21.10;90.70
36856;DHT22;22788;51.434;6.786;2023-05-31T11:56:29;21.20;90.30
36856;DHT22;22788;51.434;6.786;2023-05-31T11:58:56;21.40;89.30
36856;DHT22;22788;51.434;6.786;2023-05-31T12:01:21;21.20;85.30
36856;DHT22;22788;51.434;6.786;2023-05-31T12:03:47;21.30;91.80
36856;DHT22;22788;51.434;6.786;2023-05-31T12:06:12;21.10;88.60
36856;DHT22;22788;51.434;6.786;2023-05-31T12:08:40;21.30;85.70
36856;DHT22;22788;51.434;6.786;2023-05-31T12:11:05;21.30;91.20
36856;DHT22;22788;51.434;6.786;2023-05-31T12:13:32;20.70;92.60
36856;DHT22;22788;51.434;6.786;2023-05-31T12:15:58;20.60;94.20
36856;DHT22;22788;51.434;6.786;2023-05-31T12:18:24;20.60;92.50
36856;DHT22;22788;51.434;6.786;2023-05-31T12:20:49;20.70;94.50
36856;DHT22;22788;51.434;6.786;2023-05-31T12:23:16;20.80;88.60
36856;DHT22;22788;51.434;6.786;2023-05-31T12:25:47;21.00;94.10
36856;DHT22;22788;51.434;6.786;2023-05-31T12:28:14;20.60;92.40
36856;DHT22;22788;51.434;6.786;2023-05-31T12:30:43;20.80;93.90
36856;DHT22;22788;51.434;6.786;2023-05-31T12:33:09;21.20;93.60
36856;DHT22;22788;51.434;6.786;2023-05-31T12:35:39;21.00;90.80
36856;DHT22;22788;51.434;6.786;2023-05-31T12:38:05;21.10;92.20
36856;DHT22;22788;51.434;6.786;2023-05-31T12:40:31;20.70;94.70
36856;DHT22;22788;51.434;6.786;2023-05-31T12:43:03;20.80;94.60
36856;DHT22;22788;51.434;6.786;2023-05-31T12:45:28;20.70;93.00
36856;DHT22;22788;51.434;6.786;2023-05-31T12:47:56;20.80;95.20
36856;DHT22;22788;51.434;6.786;2023-05-31T12:50:22;21.20;89.50
36856;DHT22;22788;51.434;6.786;2023-05-31T12:52:54;21.70;80.90
36856;DHT22;22788;51.434;6.786;2023-05-31T12:55:20;21.90;91.80
36856;DHT22;22788;51.434;6.786;2023-05-31T12:57:46;21.70;92.20
36856;DHT22;22788;51.434;6.786;2023-05-31T13:00:13;21.50;92.90
36856;DHT22;22788;51.434;6.786;2023-05-31T13:02:40;21.60;86.60
36856;DHT22;22788;51.434;6.786;2023-05-31T13:05:06;22.10;82.90
36856;DHT22;22788;51.434;6.786;2023-05-31T13:07:32;22.30;85.40
36856;DHT22;22788;51.434;6.786;2023-05-31T13:09:58;22.40;82.10
36856;DHT22;22788;51.434;6.786;2023-05-31T13:12:24;22.40;80.10
36856;DHT22;22788;51.434;6.786;2023-05-31T16:39:34;22.90;85.60
36856;DHT22;22788;51.434;6.786;2023-05-31T16:44:27;22.90;98.70
36856;DHT22;22788;51.434;6.786;2023-05-31T16:46:53;22.60;83.80
36856;DHT22;22788;51.434;6.786;2023-05-31T16:49:19;22.50;84.70
36856;DHT22;22788;51.434;6.786;2023-05-31T16:51:44;22.30;85.50
36856;DHT22;22788;51.434;6.786;2023-05-31T16:54:10;22.30;87.50
36856;DHT22;22788;51.434;6.786;2023-05-31T16:56:35;22.30;87.80
36856;DHT22;22788;51.434;6.786;2023-05-31T16:59:02;22.10;88.70
36856;DHT22;22788;51.434;6.786;2023-05-31T17:01:28;22.00;90.70
36856;DHT22;22788;51.434;6.786;2023-05-31T17:03:54;22.10;90.50
36856;DHT22;22788;51.434;6.786;2023-05-31T17:06:20;22.20;90.70
36856;DHT22;22788;51.434;6.786;2023-05-31T17:08:46;22.10;85.20
36856;DHT22;22788;51.434;6.786;2023-05-31T17:11:12;22.20;89.30
36856;DHT22;22788;51.434;6.786;2023-05-31T17:13:38;22.40;90.20
36856;DHT22;22788;51.434;6.786;2023-05-31T17:16:05;22.50;87.80
36856;DHT22;22788;51.434;6.786;2023-05-31T17:18:31;22.50;90.30
36856;DHT22;22788;51.434;6.786;2023-05-31T17:20:57;22.50;92.00
36856;DHT22;22788;51.434;6.786;2023-05-31T17:23:22;22.40;90.70
36856;DHT22;22788;51.434;6.786;2023-05-31T17:25:48;22.30;91.50
36856;DHT22;22788;51.434;6.786;2023-05-31T17:28:14;22.20;91.70
36856;DHT22;22788;51.434;6.786;2023-05-31T17:30:39;22.20;90.60
36856;DHT22;22788;51.434;6.786;2023-05-31T17:33:06;22.30;91.80
36856;DHT22;22788;51.434;6.786;2023-05-31T17:35:32;22.10;91.40
36856;DHT22;22788;51.434;6.786;2023-05-31T17:37:58;22.20;92.20
36856;DHT22;22788;51.434;6.786;2023-05-31T17:40:23;22.10;92.40
36856;DHT22;22788;51.434;6.786;2023-05-31T17:42:49;22.00;92.70
36856;DHT22;22788;51.434;6.786;2023-05-31T17:45:14;22.00;92.20
36856;DHT22;22788;51.434;6.786;2023-05-31T17:47:41;22.10;92.70
36856;DHT22;22788;51.434;6.786;2023-05-31T17:50:10;22.00;92.90
36856;DHT22;22788;51.434;6.786;2023-05-31T17:52:36;21.90;93.00
36856;DHT22;22788;51.434;6.786;2023-05-31T17:55:03;21.90;92.50
36856;DHT22;22788;51.434;6.786;2023-05-31T17:57:29;22.00;92.90
36856;DHT22;22788;51.434;6.786;2023-05-31T17:59:56;21.90;93.50
36856;DHT22;22788;51.434;6.786;2023-05-31T18:02:22;21.90;93.50
36856;DHT22;22788;51.434;6.786;2023-05-31T18:04:47;21.90;93.60
36856;DHT22;22788;51.434;6.786;2023-05-31T18:07:15;21.90;93.10
36856;DHT22;22788;51.434;6.786;2023-05-31T18:09:41;22.00;93.40
36856;DHT22;22788;51.434;6.786;2023-05-31T18:12:07;21.90;93.90
36856;DHT22;22788;51.434;6.786;2023-05-31T18:14:33;22.00;93.50
36856;DHT22;22788;51.434;6.786;2023-05-31T18:16:59;22.00;93.80
36856;DHT22;22788;51.434;6.786;2023-05-31T18:19:26;21.90;92.70
36856;DHT22;22788;51.434;6.786;2023-05-31T18:21:51;22.00;92.80
36856;DHT22;22788;51.434;6.786;2023-05-31T18:24:19;22.00;93.90
36856;DHT22;22788;51.434;6.786;2023-05-31T18:26:44;22.00;93.60
36856;DHT22;22788;51.434;6.786;2023-05-31T18:29:10;21.90;94.10
36856;DHT22;22788;51.434;6.786;2023-05-31T18:31:35;22.00;92.60
36856;DHT22;22788;51.434;6.786;2023-05-31T18:34:01;22.00;93.70
36856;DHT22;22788;51.434;6.786;2023-05-31T18:36:27;21.90;93.50
36856;DHT22;22788;51.434;6.786;2023-05-31T18:38:52;21.90;94.40
36856;DHT22;22788;51.434;6.786;2023-05-31T18:41:19;21.80;93.40
36856;DHT22;22788;51.434;6.786;2023-05-31T18:43:45;21.80;94.60
36856;DHT22;22788;51.434;6.786;2023-05-31T18:46:12;21.80;93.90
36856;DHT22;22788;51.434;6.786;2023-05-31T18:48:37;21.80;94.30
36856;DHT22;22788;51.434;6.786;2023-05-31T18:51:03;21.80;92.60
36856;DHT22;22788;51.434;6.786;2023-05-31T18:53:29;21.80;94.80